sensor_id;sensor_type;location;lat;lon;timestamp;P1;durP1;ratioP1;P2;durP2;ratioP2
14778;SDS011;7481;53.750;10.570;2022-09-01T00:02:38;1.67;;;1.50;;
14778;SDS011;7481;53.750;10.570;2022-09-01T00:05:25;1.90;;;1.70;;
14778;SDS011;7481;53.750;10.570;2022-09-01T00:08:12;2.33;;;1.63;;
14778;SDS011;7481;53.750;10.570;2022-09-01T00:11:04;1.57;;;1.47;;
14778;SDS011;7481;53.750;10.570;2022-09-01T00:13:51;1.80;;;1.70;;
14778;SDS011;7481;53.750;10.570;2022-09-01T00:16:38;1.97;;;1.60;;
14778;SDS011;7481;53.750;10.570;2022-09-01T00:19:25;1.53;;;1.43;;
14778;SDS011;7481;53.750;10.570;2022-09-01T00:22:13;1.63;;;1.50;;
14778;SDS011;7481;53.750;10.570;2022-09-01T00:25:00;1.67;;;1.50;;
14778;SDS011;7481;53.750;10.570;2022-09-01T00:27:47;1.80;;;1.50;;
14778;SDS011;7481;53.750;10.570;2022-09-01T00:30:34;2.57;;;1.60;;
14778;SDS011;7481;53.750;10.570;2022-09-01T00:33:22;3.90;;;1.60;;
14778;SDS011;7481;53.750;10.570;2022-09-01T00:36:09;1.67;;;1.57;;
14778;SDS011;7481;53.750;10.570;2022-09-01T00:38:56;1.93;;;1.50;;
14778;SDS011;7481;53.750;10.570;2022-09-01T00:41:43;1.87;;;1.67;;
14778;SDS011;7481;53.750;10.570;2022-09-01T00:44:30;1.70;;;1.60;;
14778;SDS011;7481;53.750;10.570;2022-09-01T00:47:18;1.73;;;1.63;;
14778;SDS011;7481;53.750;10.570;2022-09-01T00:50:07;2.73;;;2.00;;
14778;SDS011;7481;53.750;10.570;2022-09-01T00:52:56;2.20;;;2.00;;
14778;SDS011;7481;53.750;10.570;2022-09-01T00:55:43;1.70;;;1.60;;
14778;SDS011;7481;53.750;10.570;2022-09-01T00:58:30;2.17;;;1.93;;
14778;SDS011;7481;53.750;10.570;2022-09-01T01:01:19;1.93;;;1.80;;
14778;SDS011;7481;53.750;10.570;2022-09-01T01:04:07;1.77;;;1.60;;
14778;SDS011;7481;53.750;10.570;2022-09-01T01:07:00;2.50;;;2.03;;
14778;SDS011;7481;53.750;10.570;2022-09-01T01:09:47;4.23;;;2.10;;
14778;SDS011;7481;53.750;10.570;2022-09-01T01:12:35;4.80;;;1.93;;
14778;SDS011;7481;53.750;10.570;2022-09-01T01:15:25;2.83;;;1.80;;
14778;SDS011;7481;53.750;10.570;2022-09-01T01:18:14;2.17;;;1.97;;
14778;SDS011;7481;53.750;10.570;2022-09-01T01:21:51;2.03;;;1.83;;
14778;SDS011;7481;53.750;10.570;2022-09-01T01:24:40;2.10;;;1.90;;
14778;SDS011;7481;53.750;10.570;2022-09-01T01:27:32;2.30;;;2.03;;
14778;SDS011;7481;53.750;10.570;2022-09-01T01:30:28;2.13;;;1.80;;
14778;SDS011;7481;53.750;10.570;2022-09-01T01:33:22;1.97;;;1.77;;
14778;SDS011;7481;53.750;10.570;2022-09-01T01:36:12;2.37;;;1.97;;
14778;SDS011;7481;53.750;10.570;2022-09-01T01:39:00;2.13;;;1.90;;
14778;SDS011;7481;53.750;10.570;2022-09-01T01:41:53;2.33;;;1.70;;
14778;SDS011;7481;53.750;10.570;2022-09-01T01:44:41;1.77;;;1.60;;
14778;SDS011;7481;53.750;10.570;2022-09-01T01:47:28;3.27;;;2.00;;
14778;SDS011;7481;53.750;10.570;2022-09-01T01:50:15;2.20;;;2.00;;
14778;SDS011;7481;53.750;10.570;2022-09-01T01:53:06;2.07;;;1.87;;
14778;SDS011;7481;53.750;10.570;2022-09-01T01:55:57;2.17;;;1.83;;
14778;SDS011;7481;53.750;10.570;2022-09-01T01:58:45;2.50;;;2.00;;
14778;SDS011;7481;53.750;10.570;2022-09-01T02:01:32;3.07;;;1.80;;
14778;SDS011;7481;53.750;10.570;2022-09-01T02:04:19;2.30;;;2.10;;
14778;SDS011;7481;53.750;10.570;2022-09-01T02:07:10;3.30;;;2.20;;
14778;SDS011;7481;53.750;10.570;2022-09-01T02:09:58;2.33;;;2.13;;
14778;SDS011;7481;53.750;10.570;2022-09-01T02:12:47;2.83;;;2.20;;
14778;SDS011;7481;53.750;10.570;2022-09-01T02:15:36;2.40;;;1.87;;
14778;SDS011;7481;53.750;10.570;2022-09-01T02:18:32;2.30;;;1.90;;
14778;SDS011;7481;53.750;10.570;2022-09-01T02:21:22;2.17;;;1.97;;
14778;SDS011;7481;53.750;10.570;2022-09-01T02:24:10;2.33;;;2.10;;
14778;SDS011;7481;53.750;10.570;2022-09-01T02:26:58;3.70;;;1.90;;
14778;SDS011;7481;53.750;10.570;2022-09-01T02:29:45;2.63;;;2.00;;
14778;SDS011;7481;53.750;10.570;2022-09-01T02:32:32;2.20;;;2.00;;
14778;SDS011;7481;53.750;10.570;2022-09-01T02:35:19;2.67;;;2.20;;
14778;SDS011;7481;53.750;10.570;2022-09-01T02:38:06;2.23;;;1.87;;
14778;SDS011;7481;53.750;10.570;2022-09-01T02:40:55;2.70;;;2.17;;
14778;SDS011;7481;53.750;10.570;2022-09-01T02:43:43;2.47;;;2.27;;
14778;SDS011;7481;53.750;10.570;2022-09-01T02:46:31;2.60;;;2.00;;
14778;SDS011;7481;53.750;10.570;2022-09-01T02:49:19;3.93;;;2.13;;
14778;SDS011;7481;53.750;10.570;2022-09-01T02:52:10;2.30;;;2.10;;
14778;SDS011;7481;53.750;10.570;2022-09-01T02:54:57;2.90;;;2.17;;
14778;SDS011;7481;53.750;10.570;2022-09-01T02:57:44;3.90;;;2.03;;
14778;SDS011;7481;53.750;10.570;2022-09-01T03:00:35;4.17;;;2.40;;
14778;SDS011;7481;53.750;10.570;2022-09-01T03:03:25;6.67;;;2.40;;
14778;SDS011;7481;53.750;10.570;2022-09-01T03:06:14;9.53;;;2.97;;
14778;SDS011;7481;53.750;10.570;2022-09-01T03:09:05;3.07;;;1.90;;
14778;SDS011;7481;53.750;10.570;2022-09-01T03:11:57;2.70;;;2.50;;
14778;SDS011;7481;53.750;10.570;2022-09-01T03:14:44;2.30;;;2.10;;
14778;SDS011;7481;53.750;10.570;2022-09-01T03:17:31;2.70;;;2.30;;
14778;SDS011;7481;53.750;10.570;2022-09-01T03:20:18;5.43;;;2.60;;
14778;SDS011;7481;53.750;10.570;2022-09-01T03:23:07;3.10;;;2.80;;
14778;SDS011;7481;53.750;10.570;2022-09-01T03:25:55;2.47;;;2.27;;
14778;SDS011;7481;53.750;10.570;2022-09-01T03:28:42;3.50;;;2.70;;
14778;SDS011;7481;53.750;10.570;2022-09-01T03:31:29;4.20;;;2.40;;
14778;SDS011;7481;53.750;10.570;2022-09-01T03:34:17;4.40;;;2.30;;
14778;SDS011;7481;53.750;10.570;2022-09-01T03:37:08;3.20;;;2.40;;
14778;SDS011;7481;53.750;10.570;2022-09-01T03:39:56;2.80;;;2.50;;
14778;SDS011;7481;53.750;10.570;2022-09-01T03:42:45;2.75;;;1.98;;
14778;SDS011;7481;53.750;10.570;2022-09-01T03:45:32;2.50;;;2.30;;
14778;SDS011;7481;53.750;10.570;2022-09-01T03:48:23;3.40;;;2.03;;
14778;SDS011;7481;53.750;10.570;2022-09-01T03:51:14;2.80;;;2.45;;
14778;SDS011;7481;53.750;10.570;2022-09-01T03:54:01;3.03;;;2.17;;
14778;SDS011;7481;53.750;10.570;2022-09-01T03:56:48;2.67;;;2.20;;
14778;SDS011;7481;53.750;10.570;2022-09-01T03:59:36;2.63;;;2.43;;
14778;SDS011;7481;53.750;10.570;2022-09-01T04:02:28;3.40;;;2.63;;
14778;SDS011;7481;53.750;10.570;2022-09-01T04:05:19;2.43;;;2.23;;
14778;SDS011;7481;53.750;10.570;2022-09-01T04:08:10;3.10;;;2.13;;
14778;SDS011;7481;53.750;10.570;2022-09-01T04:11:03;4.03;;;2.87;;
14778;SDS011;7481;53.750;10.570;2022-09-01T04:13:56;4.30;;;2.43;;
14778;SDS011;7481;53.750;10.570;2022-09-01T04:16:44;4.87;;;2.53;;
14778;SDS011;7481;53.750;10.570;2022-09-01T04:19:50;2.90;;;2.60;;
14778;SDS011;7481;53.750;10.570;2022-09-01T04:22:37;2.50;;;2.30;;
14778;SDS011;7481;53.750;10.570;2022-09-01T04:25:24;5.20;;;2.80;;
14778;SDS011;7481;53.750;10.570;2022-09-01T04:28:12;7.00;;;2.93;;
14778;SDS011;7481;53.750;10.570;2022-09-01T04:31:09;6.77;;;3.73;;
14778;SDS011;7481;53.750;10.570;2022-09-01T04:34:03;5.97;;;3.00;;
14778;SDS011;7481;53.750;10.570;2022-09-01T04:36:57;4.53;;;2.53;;
14778;SDS011;7481;53.750;10.570;2022-09-01T04:39:54;6.57;;;3.30;;
14778;SDS011;7481;53.750;10.570;2022-09-01T04:42:43;5.13;;;3.07;;
14778;SDS011;7481;53.750;10.570;2022-09-01T04:45:30;5.60;;;2.90;;
14778;SDS011;7481;53.750;10.570;2022-09-01T04:48:20;5.57;;;3.20;;
14778;SDS011;7481;53.750;10.570;2022-09-01T04:51:08;8.00;;;3.40;;
14778;SDS011;7481;53.750;10.570;2022-09-01T04:53:56;9.87;;;3.70;;
14778;SDS011;7481;53.750;10.570;2022-09-01T04:56:44;6.87;;;3.60;;
14778;SDS011;7481;53.750;10.570;2022-09-01T04:59:34;8.53;;;3.40;;
14778;SDS011;7481;53.750;10.570;2022-09-01T05:02:22;6.20;;;3.00;;
14778;SDS011;7481;53.750;10.570;2022-09-01T05:05:12;5.20;;;3.30;;
14778;SDS011;7481;53.750;10.570;2022-09-01T05:07:59;4.77;;;3.23;;
14778;SDS011;7481;53.750;10.570;2022-09-01T05:10:48;6.83;;;3.00;;
14778;SDS011;7481;53.750;10.570;2022-09-01T05:13:41;6.33;;;3.00;;
14778;SDS011;7481;53.750;10.570;2022-09-01T05:16:33;5.47;;;3.03;;
14778;SDS011;7481;53.750;10.570;2022-09-01T05:19:21;7.47;;;2.90;;
14778;SDS011;7481;53.750;10.570;2022-09-01T05:22:11;3.80;;;2.80;;
14778;SDS011;7481;53.750;10.570;2022-09-01T05:24:59;4.37;;;3.17;;
14778;SDS011;7481;53.750;10.570;2022-09-01T05:27:57;4.00;;;3.10;;
14778;SDS011;7481;53.750;10.570;2022-09-01T05:30:45;3.47;;;3.07;;
14778;SDS011;7481;53.750;10.570;2022-09-01T05:33:33;3.80;;;2.77;;
14778;SDS011;7481;53.750;10.570;2022-09-01T05:36:22;3.93;;;2.70;;
14778;SDS011;7481;53.750;10.570;2022-09-01T05:39:11;4.70;;;3.20;;
14778;SDS011;7481;53.750;10.570;2022-09-01T05:41:58;3.80;;;3.40;;
14778;SDS011;7481;53.750;10.570;2022-09-01T05:44:47;3.97;;;2.97;;
14778;SDS011;7481;53.750;10.570;2022-09-01T05:47:38;4.37;;;3.00;;
14778;SDS011;7481;53.750;10.570;2022-09-01T05:50:27;4.00;;;2.83;;
14778;SDS011;7481;53.750;10.570;2022-09-01T05:53:14;3.67;;;3.33;;
14778;SDS011;7481;53.750;10.570;2022-09-01T05:56:06;3.10;;;2.87;;
14778;SDS011;7481;53.750;10.570;2022-09-01T05:58:54;3.60;;;3.30;;
14778;SDS011;7481;53.750;10.570;2022-09-01T06:02:05;6.73;;;3.20;;
14778;SDS011;7481;53.750;10.570;2022-09-01T06:04:54;3.57;;;3.00;;
14778;SDS011;7481;53.750;10.570;2022-09-01T06:07:42;2.70;;;2.50;;
14778;SDS011;7481;53.750;10.570;2022-09-01T06:10:30;3.40;;;2.60;;
14778;SDS011;7481;53.750;10.570;2022-09-01T06:13:18;3.03;;;2.73;;
14778;SDS011;7481;53.750;10.570;2022-09-01T06:16:11;3.97;;;3.00;;
14778;SDS011;7481;53.750;10.570;2022-09-01T06:19:02;3.40;;;2.30;;
14778;SDS011;7481;53.750;10.570;2022-09-01T06:21:50;2.93;;;2.70;;
14778;SDS011;7481;53.750;10.570;2022-09-01T06:24:37;2.80;;;2.50;;
14778;SDS011;7481;53.750;10.570;2022-09-01T06:27:29;3.90;;;2.80;;
14778;SDS011;7481;53.750;10.570;2022-09-01T06:30:17;2.87;;;2.50;;
14778;SDS011;7481;53.750;10.570;2022-09-01T06:33:11;7.90;;;2.97;;
14778;SDS011;7481;53.750;10.570;2022-09-01T06:35:59;6.60;;;2.53;;
14778;SDS011;7481;53.750;10.570;2022-09-01T06:38:52;2.60;;;2.40;;
14778;SDS011;7481;53.750;10.570;2022-09-01T06:41:40;3.33;;;2.20;;
14778;SDS011;7481;53.750;10.570;2022-09-01T06:44:27;5.23;;;2.90;;
14778;SDS011;7481;53.750;10.570;2022-09-01T06:47:17;3.70;;;2.17;;
14778;SDS011;7481;53.750;10.570;2022-09-01T06:50:04;3.90;;;1.97;;
14778;SDS011;7481;53.750;10.570;2022-09-01T06:52:54;3.67;;;2.20;;
14778;SDS011;7481;53.750;10.570;2022-09-01T06:56:16;2.53;;;1.93;;
14778;SDS011;7481;53.750;10.570;2022-09-01T06:59:04;2.13;;;1.93;;
14778;SDS011;7481;53.750;10.570;2022-09-01T07:01:53;5.33;;;1.97;;
14778;SDS011;7481;53.750;10.570;2022-09-01T07:05:00;3.33;;;1.90;;
14778;SDS011;7481;53.750;10.570;2022-09-01T07:07:49;2.07;;;1.87;;
14778;SDS011;7481;53.750;10.570;2022-09-01T07:10:51;3.43;;;2.00;;
14778;SDS011;7481;53.750;10.570;2022-09-01T07:14:01;2.50;;;1.93;;
14778;SDS011;7481;53.750;10.570;2022-09-01T07:17:06;2.10;;;1.90;;
14778;SDS011;7481;53.750;10.570;2022-09-01T07:20:09;2.93;;;2.00;;
14778;SDS011;7481;53.750;10.570;2022-09-01T07:23:13;2.63;;;1.60;;
14778;SDS011;7481;53.750;10.570;2022-09-01T07:26:04;2.78;;;1.42;;
14778;SDS011;7481;53.750;10.570;2022-09-01T07:28:52;2.95;;;1.60;;
14778;SDS011;7481;53.750;10.570;2022-09-01T07:31:47;1.73;;;1.27;;
14778;SDS011;7481;53.750;10.570;2022-09-01T07:34:35;1.38;;;1.20;;
14778;SDS011;7481;53.750;10.570;2022-09-01T07:37:24;1.83;;;1.15;;
14778;SDS011;7481;53.750;10.570;2022-09-01T07:40:33;1.35;;;1.25;;
14778;SDS011;7481;53.750;10.570;2022-09-01T07:43:43;1.67;;;1.30;;
14778;SDS011;7481;53.750;10.570;2022-09-01T07:46:30;9.55;;;1.90;;
14778;SDS011;7481;53.750;10.570;2022-09-01T07:49:25;3.28;;;1.40;;
14778;SDS011;7481;53.750;10.570;2022-09-01T07:52:15;2.08;;;1.30;;
14778;SDS011;7481;53.750;10.570;2022-09-01T07:57:57;1.80;;;1.45;;
14778;SDS011;7481;53.750;10.570;2022-09-01T08:00:45;1.60;;;1.27;;
14778;SDS011;7481;53.750;10.570;2022-09-01T08:03:32;2.58;;;1.60;;
14778;SDS011;7481;53.750;10.570;2022-09-01T08:06:20;2.45;;;1.40;;
14778;SDS011;7481;53.750;10.570;2022-09-01T08:09:13;2.45;;;1.42;;
14778;SDS011;7481;53.750;10.570;2022-09-01T08:12:20;1.38;;;1.15;;
14778;SDS011;7481;53.750;10.570;2022-09-01T08:15:14;1.38;;;1.10;;
14778;SDS011;7481;53.750;10.570;2022-09-01T08:18:22;3.17;;;1.30;;
14778;SDS011;7481;53.750;10.570;2022-09-01T08:21:10;2.25;;;1.20;;
14778;SDS011;7481;53.750;10.570;2022-09-01T08:23:58;1.88;;;1.40;;
14778;SDS011;7481;53.750;10.570;2022-09-01T08:26:45;1.55;;;1.17;;
14778;SDS011;7481;53.750;10.570;2022-09-01T08:29:32;1.20;;;1.10;;
14778;SDS011;7481;53.750;10.570;2022-09-01T08:32:19;2.70;;;1.50;;
14778;SDS011;7481;53.750;10.570;2022-09-01T08:35:08;3.22;;;1.42;;
14778;SDS011;7481;53.750;10.570;2022-09-01T08:37:57;1.80;;;1.40;;
14778;SDS011;7481;53.750;10.570;2022-09-01T08:40:49;1.80;;;1.40;;
14778;SDS011;7481;53.750;10.570;2022-09-01T08:43:46;1.70;;;1.35;;
14778;SDS011;7481;53.750;10.570;2022-09-01T08:46:43;1.88;;;1.55;;
14778;SDS011;7481;53.750;10.570;2022-09-01T08:49:30;1.55;;;1.20;;
14778;SDS011;7481;53.750;10.570;2022-09-01T08:52:30;1.30;;;1.20;;
14778;SDS011;7481;53.750;10.570;2022-09-01T08:55:21;1.38;;;1.27;;
14778;SDS011;7481;53.750;10.570;2022-09-01T08:58:14;3.22;;;1.30;;
14778;SDS011;7481;53.750;10.570;2022-09-01T09:01:07;2.08;;;1.30;;
14778;SDS011;7481;53.750;10.570;2022-09-01T09:09:56;1.77;;;1.23;;
14778;SDS011;7481;53.750;10.570;2022-09-01T09:12:58;2.83;;;1.30;;
14778;SDS011;7481;53.750;10.570;2022-09-01T09:15:55;1.20;;;1.10;;
14778;SDS011;7481;53.750;10.570;2022-09-01T09:19:00;1.55;;;1.20;;
14778;SDS011;7481;53.750;10.570;2022-09-01T09:22:20;4.85;;;1.75;;
14778;SDS011;7481;53.750;10.570;2022-09-01T09:25:15;1.45;;;1.35;;
14778;SDS011;7481;53.750;10.570;2022-09-01T09:28:05;2.67;;;1.42;;
14778;SDS011;7481;53.750;10.570;2022-09-01T09:37:21;2.97;;;1.70;;
14778;SDS011;7481;53.750;10.570;2022-09-01T09:40:18;1.60;;;1.50;;
14778;SDS011;7481;53.750;10.570;2022-09-01T09:43:06;1.55;;;1.42;;
14778;SDS011;7481;53.750;10.570;2022-09-01T09:52:34;2.63;;;1.40;;
14778;SDS011;7481;53.750;10.570;2022-09-01T09:58:11;1.48;;;1.38;;
14778;SDS011;7481;53.750;10.570;2022-09-01T10:01:06;1.45;;;1.10;;
14778;SDS011;7481;53.750;10.570;2022-09-01T10:04:03;2.08;;;1.40;;
14778;SDS011;7481;53.750;10.570;2022-09-01T10:06:51;2.38;;;1.30;;
14778;SDS011;7481;53.750;10.570;2022-09-01T10:09:39;3.17;;;1.30;;
14778;SDS011;7481;53.750;10.570;2022-09-01T10:12:26;2.42;;;1.33;;
14778;SDS011;7481;53.750;10.570;2022-09-01T10:15:16;1.92;;;1.50;;
14778;SDS011;7481;53.750;10.570;2022-09-01T10:18:13;1.60;;;1.50;;
14778;SDS011;7481;53.750;10.570;2022-09-01T10:21:20;1.30;;;1.20;;
14778;SDS011;7481;53.750;10.570;2022-09-01T10:27:26;1.35;;;1.25;;
14778;SDS011;7481;53.750;10.570;2022-09-01T10:30:20;2.20;;;1.13;;
14778;SDS011;7481;53.750;10.570;2022-09-01T10:33:08;1.20;;;1.10;;
14778;SDS011;7481;53.750;10.570;2022-09-01T10:36:06;1.42;;;1.00;;
14778;SDS011;7481;53.750;10.570;2022-09-01T10:38:54;2.05;;;1.30;;
14778;SDS011;7481;53.750;10.570;2022-09-01T10:41:51;1.25;;;1.10;;
14778;SDS011;7481;53.750;10.570;2022-09-01T10:44:56;4.00;;;1.27;;
14778;SDS011;7481;53.750;10.570;2022-09-01T10:47:47;2.45;;;1.45;;
14778;SDS011;7481;53.750;10.570;2022-09-01T10:50:34;2.22;;;1.30;;
14778;SDS011;7481;53.750;10.570;2022-09-01T10:53:55;1.20;;;1.10;;
14778;SDS011;7481;53.750;10.570;2022-09-01T10:59:30;1.30;;;1.20;;
14778;SDS011;7481;53.750;10.570;2022-09-01T11:02:25;3.55;;;1.25;;
14778;SDS011;7481;53.750;10.570;2022-09-01T11:05:21;1.30;;;1.00;;
14778;SDS011;7481;53.750;10.570;2022-09-01T11:14:18;1.30;;;1.20;;
14778;SDS011;7481;53.750;10.570;2022-09-01T11:32:38;1.52;;;1.10;;
14778;SDS011;7481;53.750;10.570;2022-09-01T11:35:32;2.47;;;1.17;;
14778;SDS011;7481;53.750;10.570;2022-09-01T11:38:19;1.05;;;1.05;;
14778;SDS011;7481;53.750;10.570;2022-09-01T11:41:07;1.08;;;0.98;;
14778;SDS011;7481;53.750;10.570;2022-09-01T11:43:55;1.90;;;1.20;;
14778;SDS011;7481;53.750;10.570;2022-09-01T11:46:43;6.25;;;1.65;;
14778;SDS011;7481;53.750;10.570;2022-09-01T11:49:32;3.10;;;1.13;;
14778;SDS011;7481;53.750;10.570;2022-09-01T11:52:24;1.25;;;1.10;;
14778;SDS011;7481;53.750;10.570;2022-09-01T11:55:15;2.30;;;1.00;;
14778;SDS011;7481;53.750;10.570;2022-09-01T12:01:16;1.13;;;1.00;;
14778;SDS011;7481;53.750;10.570;2022-09-01T12:04:25;1.33;;;1.20;;
14778;SDS011;7481;53.750;10.570;2022-09-01T12:13:22;2.30;;;1.08;;
14778;SDS011;7481;53.750;10.570;2022-09-01T12:16:10;1.17;;;1.08;;
14778;SDS011;7481;53.750;10.570;2022-09-01T12:19:06;2.47;;;1.30;;
14778;SDS011;7481;53.750;10.570;2022-09-01T12:22:05;1.30;;;1.10;;
14778;SDS011;7481;53.750;10.570;2022-09-01T12:25:02;2.95;;;1.15;;
14778;SDS011;7481;53.750;10.570;2022-09-01T12:27:50;2.47;;;1.10;;
14778;SDS011;7481;53.750;10.570;2022-09-01T12:30:37;7.55;;;1.33;;
14778;SDS011;7481;53.750;10.570;2022-09-01T12:33:26;1.30;;;1.20;;
14778;SDS011;7481;53.750;10.570;2022-09-01T12:36:18;1.35;;;1.15;;
14778;SDS011;7481;53.750;10.570;2022-09-01T12:39:21;1.55;;;1.23;;
14778;SDS011;7481;53.750;10.570;2022-09-01T12:42:23;1.00;;;1.00;;
14778;SDS011;7481;53.750;10.570;2022-09-01T12:45:10;7.43;;;1.40;;
14778;SDS011;7481;53.750;10.570;2022-09-01T12:47:58;1.25;;;1.15;;
14778;SDS011;7481;53.750;10.570;2022-09-01T12:50:45;1.20;;;1.10;;
14778;SDS011;7481;53.750;10.570;2022-09-01T12:53:33;9.73;;;2.03;;
14778;SDS011;7481;53.750;10.570;2022-09-01T12:56:30;3.80;;;0.95;;
14778;SDS011;7481;53.750;10.570;2022-09-01T12:59:23;2.55;;;1.10;;
14778;SDS011;7481;53.750;10.570;2022-09-01T13:02:27;4.03;;;1.67;;
14778;SDS011;7481;53.750;10.570;2022-09-01T13:05:28;5.85;;;1.80;;
14778;SDS011;7481;53.750;10.570;2022-09-01T13:08:29;1.98;;;1.17;;
14778;SDS011;7481;53.750;10.570;2022-09-01T13:11:18;1.55;;;1.33;;
14778;SDS011;7481;53.750;10.570;2022-09-01T13:14:06;1.38;;;1.20;;
14778;SDS011;7481;53.750;10.570;2022-09-01T13:16:54;4.55;;;1.50;;
14778;SDS011;7481;53.750;10.570;2022-09-01T13:19:41;3.38;;;1.00;;
14778;SDS011;7481;53.750;10.570;2022-09-01T13:22:28;1.30;;;1.20;;
14778;SDS011;7481;53.750;10.570;2022-09-01T13:25:16;1.38;;;1.27;;
14778;SDS011;7481;53.750;10.570;2022-09-01T13:28:06;2.67;;;1.48;;
14778;SDS011;7481;53.750;10.570;2022-09-01T13:30:54;1.10;;;1.00;;
14778;SDS011;7481;53.750;10.570;2022-09-01T13:34:04;2.78;;;1.30;;
14778;SDS011;7481;53.750;10.570;2022-09-01T13:36:56;2.25;;;1.10;;
14778;SDS011;7481;53.750;10.570;2022-09-01T13:39:43;2.53;;;1.13;;
14778;SDS011;7481;53.750;10.570;2022-09-01T13:42:32;3.38;;;1.40;;
14778;SDS011;7481;53.750;10.570;2022-09-01T13:45:20;2.08;;;1.30;;
14778;SDS011;7481;53.750;10.570;2022-09-01T13:48:10;2.00;;;1.20;;
14778;SDS011;7481;53.750;10.570;2022-09-01T13:51:02;1.00;;;1.00;;
14778;SDS011;7481;53.750;10.570;2022-09-01T13:54:04;2.22;;;1.17;;
14778;SDS011;7481;53.750;10.570;2022-09-01T13:56:51;1.65;;;1.42;;
14778;SDS011;7481;53.750;10.570;2022-09-01T13:59:39;1.38;;;1.27;;
14778;SDS011;7481;53.750;10.570;2022-09-01T14:02:27;1.20;;;1.00;;
14778;SDS011;7481;53.750;10.570;2022-09-01T14:05:21;0.90;;;0.90;;
14778;SDS011;7481;53.750;10.570;2022-09-01T14:08:10;1.20;;;1.10;;
14778;SDS011;7481;53.750;10.570;2022-09-01T14:10:58;1.08;;;1.02;;
14778;SDS011;7481;53.750;10.570;2022-09-01T14:13:45;1.75;;;1.10;;
14778;SDS011;7481;53.750;10.570;2022-09-01T14:16:32;1.73;;;1.05;;
14778;SDS011;7481;53.750;10.570;2022-09-01T14:19:20;10.30;;;1.52;;
14778;SDS011;7481;53.750;10.570;2022-09-01T14:22:08;1.75;;;1.13;;
14778;SDS011;7481;53.750;10.570;2022-09-01T14:24:55;2.30;;;1.02;;
14778;SDS011;7481;53.750;10.570;2022-09-01T14:27:42;1.83;;;1.15;;
14778;SDS011;7481;53.750;10.570;2022-09-01T14:30:30;1.20;;;1.10;;
14778;SDS011;7481;53.750;10.570;2022-09-01T14:33:18;1.25;;;1.10;;
14778;SDS011;7481;53.750;10.570;2022-09-01T14:36:15;1.27;;;1.08;;
14778;SDS011;7481;53.750;10.570;2022-09-01T14:39:04;5.57;;;1.60;;
14778;SDS011;7481;53.750;10.570;2022-09-01T14:41:51;4.78;;;1.50;;
14778;SDS011;7481;53.750;10.570;2022-09-01T14:44:38;1.10;;;1.10;;
14778;SDS011;7481;53.750;10.570;2022-09-01T14:47:26;2.55;;;1.20;;
14778;SDS011;7481;53.750;10.570;2022-09-01T14:50:13;5.22;;;1.40;;
14778;SDS011;7481;53.750;10.570;2022-09-01T14:53:08;1.15;;;1.05;;
14778;SDS011;7481;53.750;10.570;2022-09-01T14:55:56;0.90;;;0.90;;
14778;SDS011;7481;53.750;10.570;2022-09-01T14:58:44;1.73;;;1.45;;
14778;SDS011;7481;53.750;10.570;2022-09-01T15:01:32;1.25;;;1.15;;
14778;SDS011;7481;53.750;10.570;2022-09-01T15:04:20;1.02;;;1.00;;
14778;SDS011;7481;53.750;10.570;2022-09-01T15:07:08;1.33;;;1.10;;
14778;SDS011;7481;53.750;10.570;2022-09-01T15:09:55;2.15;;;1.13;;
14778;SDS011;7481;53.750;10.570;2022-09-01T15:12:44;0.82;;;0.82;;
14778;SDS011;7481;53.750;10.570;2022-09-01T15:15:31;2.42;;;1.00;;
14778;SDS011;7481;53.750;10.570;2022-09-01T15:18:19;1.27;;;1.05;;
14778;SDS011;7481;53.750;10.570;2022-09-01T15:21:06;3.30;;;1.15;;
14778;SDS011;7481;53.750;10.570;2022-09-01T15:23:54;1.05;;;0.98;;
14778;SDS011;7481;53.750;10.570;2022-09-01T15:26:42;5.05;;;1.10;;
14778;SDS011;7481;53.750;10.570;2022-09-01T15:29:32;0.80;;;0.80;;
14778;SDS011;7481;53.750;10.570;2022-09-01T15:32:22;2.38;;;1.10;;
14778;SDS011;7481;53.750;10.570;2022-09-01T15:35:14;0.90;;;0.90;;
14778;SDS011;7481;53.750;10.570;2022-09-01T15:38:02;1.30;;;1.20;;
14778;SDS011;7481;53.750;10.570;2022-09-01T15:40:49;3.30;;;1.40;;
14778;SDS011;7481;53.750;10.570;2022-09-01T15:43:44;3.05;;;1.20;;
14778;SDS011;7481;53.750;10.570;2022-09-01T15:46:32;2.20;;;1.00;;
14778;SDS011;7481;53.750;10.570;2022-09-01T15:49:20;2.65;;;1.10;;
14778;SDS011;7481;53.750;10.570;2022-09-01T15:52:07;3.65;;;1.27;;
14778;SDS011;7481;53.750;10.570;2022-09-01T15:54:54;1.65;;;1.20;;
14778;SDS011;7481;53.750;10.570;2022-09-01T15:57:41;5.25;;;1.60;;
14778;SDS011;7481;53.750;10.570;2022-09-01T16:00:28;2.28;;;1.00;;
14778;SDS011;7481;53.750;10.570;2022-09-01T16:03:16;1.17;;;0.82;;
14778;SDS011;7481;53.750;10.570;2022-09-01T16:06:03;1.10;;;1.00;;
14778;SDS011;7481;53.750;10.570;2022-09-01T16:08:51;2.00;;;1.10;;
14778;SDS011;7481;53.750;10.570;2022-09-01T16:11:40;1.05;;;1.00;;
14778;SDS011;7481;53.750;10.570;2022-09-01T16:14:27;1.30;;;1.10;;
14778;SDS011;7481;53.750;10.570;2022-09-01T16:17:18;1.77;;;1.10;;
14778;SDS011;7481;53.750;10.570;2022-09-01T16:21:17;3.53;;;1.08;;
14778;SDS011;7481;53.750;10.570;2022-09-01T16:24:04;1.30;;;1.20;;
14778;SDS011;7481;53.750;10.570;2022-09-01T16:26:54;1.20;;;1.05;;
14778;SDS011;7481;53.750;10.570;2022-09-01T16:29:44;3.33;;;1.30;;
14778;SDS011;7481;53.750;10.570;2022-09-01T16:32:35;1.15;;;1.05;;
14778;SDS011;7481;53.750;10.570;2022-09-01T16:39:18;2.65;;;1.25;;
14778;SDS011;7481;53.750;10.570;2022-09-01T16:42:16;1.45;;;1.10;;
14778;SDS011;7481;53.750;10.570;2022-09-01T16:45:39;1.70;;;1.10;;
14778;SDS011;7481;53.750;10.570;2022-09-01T16:48:51;1.45;;;1.00;;
14778;SDS011;7481;53.750;10.570;2022-09-01T17:00:56;1.90;;;1.20;;
14778;SDS011;7481;53.750;10.570;2022-09-01T17:07:30;1.02;;;0.93;;
14778;SDS011;7481;53.750;10.570;2022-09-01T17:16:27;3.25;;;1.05;;
14778;SDS011;7481;53.750;10.570;2022-09-01T17:19:27;1.60;;;1.00;;
14778;SDS011;7481;53.750;10.570;2022-09-01T17:22:14;0.80;;;0.80;;
14778;SDS011;7481;53.750;10.570;2022-09-01T17:25:03;2.00;;;1.10;;
14778;SDS011;7481;53.750;10.570;2022-09-01T17:27:57;0.95;;;0.80;;
14778;SDS011;7481;53.750;10.570;2022-09-01T17:30:59;1.98;;;1.25;;
14778;SDS011;7481;53.750;10.570;2022-09-01T17:33:58;0.90;;;0.90;;
14778;SDS011;7481;53.750;10.570;2022-09-01T17:36:54;0.90;;;0.90;;
14778;SDS011;7481;53.750;10.570;2022-09-01T17:39:55;1.10;;;1.00;;
14778;SDS011;7481;53.750;10.570;2022-09-01T17:42:50;1.02;;;0.93;;
14778;SDS011;7481;53.750;10.570;2022-09-01T17:48:51;1.77;;;1.00;;
14778;SDS011;7481;53.750;10.570;2022-09-01T17:58:55;1.10;;;1.00;;
14778;SDS011;7481;53.750;10.570;2022-09-01T18:08:22;1.73;;;1.20;;
14778;SDS011;7481;53.750;10.570;2022-09-01T18:11:34;1.35;;;0.90;;
14778;SDS011;7481;53.750;10.570;2022-09-01T18:17:51;2.22;;;1.05;;
14778;SDS011;7481;53.750;10.570;2022-09-01T18:20:44;1.08;;;0.85;;
14778;SDS011;7481;53.750;10.570;2022-09-01T18:23:40;1.00;;;1.00;;
14778;SDS011;7481;53.750;10.570;2022-09-01T18:26:29;1.08;;;0.93;;
14778;SDS011;7481;53.750;10.570;2022-09-01T18:29:20;1.80;;;1.10;;
14778;SDS011;7481;53.750;10.570;2022-09-01T18:35:26;0.98;;;0.95;;
14778;SDS011;7481;53.750;10.570;2022-09-01T18:38:23;1.05;;;0.90;;
14778;SDS011;7481;53.750;10.570;2022-09-01T18:47:27;0.98;;;0.98;;
14778;SDS011;7481;53.750;10.570;2022-09-01T18:50:22;1.20;;;1.10;;
14778;SDS011;7481;53.750;10.570;2022-09-01T18:56:14;2.47;;;1.02;;
14778;SDS011;7481;53.750;10.570;2022-09-01T19:05:42;1.00;;;1.00;;
14778;SDS011;7481;53.750;10.570;2022-09-01T19:18:02;1.30;;;1.20;;
14778;SDS011;7481;53.750;10.570;2022-09-01T19:24:12;1.35;;;1.00;;
14778;SDS011;7481;53.750;10.570;2022-09-01T19:27:08;1.45;;;1.02;;
14778;SDS011;7481;53.750;10.570;2022-09-01T19:30:03;1.73;;;1.30;;
14778;SDS011;7481;53.750;10.570;2022-09-01T19:32:52;1.55;;;1.40;;